UAL924 KSFO-KLAX
Flight info
| Callsign | UAL924 |
|---|---|
| Flight time | 0h 55m |
| Altitude | 39000 |
| Route | WESLA5 SUSEY EBAYE BURGL IRNMN2 |
| Aircraft | A319/M-SDE3FGHIRWY/LB1 |
Departure
| Time | 2026-04-22 01:26 |
|---|---|
| Airport | San Francisco International Airport (KSFO) |
Arrival
| Time | 2026-04-22 02:21 |
|---|---|
| Airport | Los Angeles International Airport (KLAX) |
| Time | Latitude | Longitude | Altitude | Speed | Heading |
|---|---|---|---|---|---|
| 2026-04-22 01:05 | 37.61796 | -122.38224 | 22 ft | 0 kts | 119° |
| 2026-04-22 01:17 | 37.61798 | -122.38229 | 22 ft | 3 kts | 119° |
| 2026-04-22 01:18 | 37.61811 | -122.38258 | 26 ft | 4 kts | 120° |
| 2026-04-22 01:18 | 37.61825 | -122.38287 | 24 ft | 4 kts | 115° |
| 2026-04-22 01:18 | 37.61829 | -122.38307 | 22 ft | 0 kts | 85° |
| 2026-04-22 01:18 | 37.61842 | -122.38294 | 24 ft | 4 kts | 26° |
| 2026-04-22 01:19 | 37.61867 | -122.38284 | 22 ft | 4 kts | 17° |
| 2026-04-22 01:19 | 37.61892 | -122.38271 | 23 ft | 4 kts | 27° |
| 2026-04-22 01:19 | 37.61913 | -122.38257 | 22 ft | 2 kts | 28° |
| 2026-04-22 01:19 | 37.61914 | -122.38256 | 22 ft | 0 kts | 28° |
| 2026-04-22 01:20 | 37.61919 | -122.38253 | 22 ft | 4 kts | 29° |
| 2026-04-22 01:21 | 37.61945 | -122.38226 | 23 ft | 6 kts | 50° |
| 2026-04-22 01:21 | 37.61936 | -122.38135 | 23 ft | 16 kts | 116° |
| 2026-04-22 01:21 | 37.61886 | -122.38015 | 22 ft | 15 kts | 117° |
| 2026-04-22 01:21 | 37.61839 | -122.37899 | 22 ft | 16 kts | 114° |
| 2026-04-22 01:22 | 37.61776 | -122.37697 | 22 ft | 39 kts | 112° |
| 2026-04-22 01:22 | 37.61657 | -122.37362 | 22 ft | 31 kts | 117° |
| 2026-04-22 01:22 | 37.61555 | -122.37120 | 22 ft | 33 kts | 117° |
| 2026-04-22 01:22 | 37.61441 | -122.36890 | 22 ft | 29 kts | 132° |
| 2026-04-22 01:23 | 37.61322 | -122.36675 | 23 ft | 31 kts | 118° |
| 2026-04-22 01:23 | 37.61218 | -122.36427 | 22 ft | 32 kts | 118° |
| 2026-04-22 01:23 | 37.61114 | -122.36181 | 22 ft | 30 kts | 118° |
| 2026-04-22 01:23 | 37.61051 | -122.35997 | 22 ft | 18 kts | 89° |
| 2026-04-22 01:24 | 37.61111 | -122.35897 | 24 ft | 12 kts | 27° |
| 2026-04-22 01:24 | 37.61200 | -122.35911 | 22 ft | 18 kts | 302° |
| 2026-04-22 01:24 | 37.61212 | -122.35938 | 22 ft | 0 kts | 298° |
| 2026-04-22 01:25 | 37.61225 | -122.35968 | 24 ft | 15 kts | 298° |
| 2026-04-22 01:25 | 37.61359 | -122.36286 | 22 ft | 71 kts | 297° |
| 2026-04-22 01:26 | 37.61684 | -122.37063 | 22 ft | 128 kts | 297° |
| 2026-04-22 01:26 | 37.62180 | -122.38203 | 248 ft | 156 kts | 302° |
| 2026-04-22 01:26 | 37.62704 | -122.39335 | 1035 ft | 148 kts | 299° |
| 2026-04-22 01:26 | 37.63285 | -122.40439 | 1691 ft | 153 kts | 299° |
| 2026-04-22 01:27 | 37.63841 | -122.41668 | 2137 ft | 173 kts | 295° |
| 2026-04-22 01:27 | 37.64438 | -122.43130 | 2532 ft | 201 kts | 295° |
| 2026-04-22 01:27 | 37.65106 | -122.44765 | 3189 ft | 220 kts | 295° |
| 2026-04-22 01:27 | 37.65828 | -122.46491 | 4215 ft | 224 kts | 295° |
| 2026-04-22 01:28 | 37.66572 | -122.48246 | 5278 ft | 229 kts | 294° |
| 2026-04-22 01:28 | 37.66929 | -122.50253 | 5935 ft | 247 kts | 262° |
| 2026-04-22 01:28 | 37.66186 | -122.52212 | 6788 ft | 258 kts | 226° |
| 2026-04-22 01:28 | 37.64588 | -122.53270 | 7728 ft | 269 kts | 192° |
| 2026-04-22 01:29 | 37.62699 | -122.53081 | 8727 ft | 279 kts | 168° |
| 2026-04-22 01:29 | 37.60852 | -122.52255 | 9762 ft | 284 kts | 161° |
| 2026-04-22 01:29 | 37.59004 | -122.51278 | 10454 ft | 298 kts | 161° |
| 2026-04-22 01:29 | 37.57010 | -122.50301 | 10889 ft | 314 kts | 163° |
| 2026-04-22 01:30 | 37.54913 | -122.49408 | 11634 ft | 321 kts | 166° |
| 2026-04-22 01:30 | 37.52756 | -122.48608 | 12493 ft | 325 kts | 168° |
| 2026-04-22 01:30 | 37.50576 | -122.47790 | 13370 ft | 331 kts | 162° |
| 2026-04-22 01:30 | 37.48512 | -122.46427 | 14182 ft | 340 kts | 149° |
| 2026-04-22 01:31 | 37.46728 | -122.44419 | 14902 ft | 349 kts | 136° |
| 2026-04-22 01:31 | 37.45073 | -122.42165 | 15642 ft | 353 kts | 136° |
| 2026-04-22 01:31 | 37.43403 | -122.39884 | 16329 ft | 357 kts | 136° |
| 2026-04-22 01:31 | 37.41699 | -122.37560 | 16951 ft | 365 kts | 136° |
| 2026-04-22 01:32 | 37.39965 | -122.35197 | 17653 ft | 370 kts | 136° |
| 2026-04-22 01:32 | 37.38216 | -122.32816 | 18457 ft | 371 kts | 136° |
| 2026-04-22 01:32 | 37.36456 | -122.30424 | 19079 ft | 375 kts | 137° |
| 2026-04-22 01:32 | 37.34668 | -122.28003 | 19611 ft | 382 kts | 137° |
| 2026-04-22 01:33 | 37.32839 | -122.25531 | 20135 ft | 389 kts | 137° |
| 2026-04-22 01:33 | 37.30979 | -122.23020 | 20691 ft | 396 kts | 137° |
| 2026-04-22 01:33 | 37.29086 | -122.20460 | 21229 ft | 404 kts | 138° |
| 2026-04-22 01:33 | 37.27145 | -122.17843 | 21489 ft | 417 kts | 139° |
| 2026-04-22 01:34 | 37.25134 | -122.15134 | 21870 ft | 426 kts | 139° |
| 2026-04-22 01:34 | 37.23116 | -122.12413 | 22320 ft | 433 kts | 139° |
| 2026-04-22 01:34 | 37.21044 | -122.09615 | 22809 ft | 440 kts | 139° |
| 2026-04-22 01:34 | 37.18948 | -122.06782 | 23307 ft | 447 kts | 139° |
| 2026-04-22 01:35 | 37.16838 | -122.03929 | 23940 ft | 447 kts | 139° |
| 2026-04-22 01:35 | 37.14711 | -122.01057 | 24418 ft | 450 kts | 139° |
| 2026-04-22 01:35 | 37.12383 | -121.97928 | 24697 ft | 460 kts | 141° |
| 2026-04-22 01:35 | 37.10153 | -121.94942 | 25030 ft | 466 kts | 141° |
| 2026-04-22 01:36 | 37.08115 | -121.92211 | 25415 ft | 471 kts | 141° |
| 2026-04-22 01:36 | 37.05874 | -121.89203 | 25858 ft | 475 kts | 140° |
| 2026-04-22 01:36 | 37.03609 | -121.86163 | 26329 ft | 478 kts | 141° |
| 2026-04-22 01:36 | 37.01362 | -121.83157 | 26728 ft | 482 kts | 141° |
| 2026-04-22 01:37 | 36.99025 | -121.80037 | 27070 ft | 486 kts | 141° |
| 2026-04-22 01:37 | 36.96706 | -121.76945 | 27536 ft | 488 kts | 141° |
| 2026-04-22 01:37 | 36.94413 | -121.73884 | 27975 ft | 490 kts | 141° |
| 2026-04-22 01:37 | 36.91895 | -121.70528 | 28435 ft | 493 kts | 141° |
| 2026-04-22 01:38 | 36.89588 | -121.67455 | 28843 ft | 496 kts | 141° |
| 2026-04-22 01:38 | 36.87702 | -121.64942 | 29164 ft | 498 kts | 141° |
| 2026-04-22 01:38 | 36.85746 | -121.62340 | 29501 ft | 500 kts | 141° |
| 2026-04-22 01:38 | 36.82446 | -121.57954 | 30008 ft | 502 kts | 141° |
| 2026-04-22 01:39 | 36.80021 | -121.54734 | 30394 ft | 504 kts | 142° |
| 2026-04-22 01:39 | 36.77624 | -121.51558 | 30738 ft | 506 kts | 142° |
| 2026-04-22 01:39 | 36.75217 | -121.48374 | 31093 ft | 506 kts | 141° |
| 2026-04-22 01:39 | 36.72852 | -121.45247 | 31455 ft | 507 kts | 142° |
| 2026-04-22 01:40 | 36.71319 | -121.43223 | 31694 ft | 507 kts | 142° |
| 2026-04-22 01:40 | 36.68108 | -121.38983 | 32139 ft | 508 kts | 141° |
| 2026-04-22 01:40 | 36.65687 | -121.35789 | 32528 ft | 509 kts | 141° |
| 2026-04-22 01:40 | 36.63256 | -121.32583 | 32913 ft | 509 kts | 141° |
| 2026-04-22 01:41 | 36.60861 | -121.29423 | 33296 ft | 508 kts | 141° |
| 2026-04-22 01:41 | 36.58433 | -121.26224 | 33693 ft | 507 kts | 141° |
| 2026-04-22 01:41 | 36.56013 | -121.23042 | 34108 ft | 506 kts | 142° |
| 2026-04-22 01:41 | 36.53436 | -121.19663 | 34422 ft | 504 kts | 141° |
| 2026-04-22 01:42 | 36.51060 | -121.16553 | 34750 ft | 502 kts | 141° |
| 2026-04-22 01:42 | 36.48609 | -121.13350 | 35111 ft | 501 kts | 141° |
| 2026-04-22 01:42 | 36.47156 | -121.11453 | 35327 ft | 500 kts | 141° |
| 2026-04-22 01:42 | 36.43866 | -121.07151 | 35817 ft | 499 kts | 141° |
| 2026-04-22 01:43 | 36.41619 | -121.04159 | 36173 ft | 499 kts | 140° |
| 2026-04-22 01:43 | 36.39317 | -121.00943 | 36545 ft | 499 kts | 139° |
| 2026-04-22 01:43 | 36.37059 | -120.97671 | 36927 ft | 498 kts | 137° |
| 2026-04-22 01:43 | 36.34837 | -120.94385 | 37326 ft | 496 kts | 137° |
| 2026-04-22 01:44 | 36.32625 | -120.91106 | 37725 ft | 494 kts | 137° |
| 2026-04-22 01:44 | 36.30414 | -120.87857 | 38131 ft | 492 kts | 137° |
| 2026-04-22 01:44 | 36.28203 | -120.84654 | 38547 ft | 489 kts | 138° |
| 2026-04-22 01:44 | 36.25986 | -120.81481 | 38909 ft | 485 kts | 138° |
| 2026-04-22 01:45 | 36.23761 | -120.78328 | 39028 ft | 488 kts | 139° |
| 2026-04-22 01:45 | 36.21514 | -120.75153 | 39082 ft | 490 kts | 139° |
| 2026-04-22 01:45 | 36.17027 | -120.68798 | 39094 ft | 490 kts | 138° |
| 2026-04-22 01:46 | 36.12561 | -120.62422 | 39089 ft | 491 kts | 139° |
| 2026-04-22 01:46 | 36.08091 | -120.56046 | 39062 ft | 491 kts | 139° |
| 2026-04-22 01:47 | 36.03592 | -120.49660 | 39090 ft | 492 kts | 138° |
| 2026-04-22 01:47 | 35.99095 | -120.43297 | 39094 ft | 491 kts | 138° |
| 2026-04-22 01:48 | 35.94593 | -120.36942 | 39099 ft | 492 kts | 139° |
| 2026-04-22 01:48 | 35.90089 | -120.30601 | 39070 ft | 492 kts | 138° |
| 2026-04-22 01:49 | 35.85219 | -120.24865 | 39089 ft | 476 kts | 154° |
| 2026-04-22 01:49 | 35.79627 | -120.20584 | 39099 ft | 470 kts | 158° |
| 2026-04-22 01:50 | 35.74063 | -120.16405 | 39061 ft | 471 kts | 157° |
| 2026-04-22 01:50 | 35.68474 | -120.12198 | 39077 ft | 471 kts | 157° |
| 2026-04-22 01:51 | 35.63830 | -120.08697 | 39107 ft | 471 kts | 158° |
| 2026-04-22 01:51 | 35.57353 | -120.03797 | 39066 ft | 470 kts | 157° |
| 2026-04-22 01:52 | 35.51780 | -119.99591 | 39088 ft | 470 kts | 157° |
| 2026-04-22 01:52 | 35.47114 | -119.96078 | 39100 ft | 470 kts | 157° |
| 2026-04-22 01:53 | 35.44322 | -119.93980 | 38999 ft | 473 kts | 157° |
| 2026-04-22 01:53 | 35.41488 | -119.91860 | 38445 ft | 482 kts | 157° |
| 2026-04-22 01:53 | 35.38613 | -119.89714 | 37753 ft | 484 kts | 157° |
| 2026-04-22 01:53 | 35.35772 | -119.87587 | 37166 ft | 484 kts | 157° |
| 2026-04-22 01:54 | 35.32925 | -119.85442 | 36857 ft | 478 kts | 157° |
| 2026-04-22 01:54 | 35.30087 | -119.83303 | 36175 ft | 480 kts | 157° |
| 2026-04-22 01:54 | 35.27327 | -119.80944 | 35555 ft | 489 kts | 151° |
| 2026-04-22 01:54 | 35.24636 | -119.78414 | 35103 ft | 484 kts | 151° |
| 2026-04-22 01:55 | 35.21973 | -119.75921 | 34557 ft | 481 kts | 151° |
| 2026-04-22 01:55 | 35.19324 | -119.73455 | 34138 ft | 477 kts | 151° |
| 2026-04-22 01:55 | 35.16696 | -119.71008 | 33589 ft | 474 kts | 151° |
| 2026-04-22 01:55 | 35.14085 | -119.68573 | 33116 ft | 470 kts | 151° |
| 2026-04-22 01:56 | 35.11496 | -119.66159 | 32633 ft | 466 kts | 151° |
| 2026-04-22 01:56 | 35.08934 | -119.63775 | 32161 ft | 462 kts | 151° |
| 2026-04-22 01:56 | 35.06395 | -119.61412 | 31699 ft | 458 kts | 151° |
| 2026-04-22 01:56 | 35.03868 | -119.59061 | 31205 ft | 454 kts | 151° |
| 2026-04-22 01:57 | 35.01373 | -119.56741 | 30794 ft | 449 kts | 151° |
| 2026-04-22 01:57 | 34.98895 | -119.54439 | 30357 ft | 446 kts | 151° |
| 2026-04-22 01:57 | 34.96440 | -119.52162 | 29893 ft | 442 kts | 152° |
| 2026-04-22 01:57 | 34.94005 | -119.49909 | 29478 ft | 436 kts | 152° |
| 2026-04-22 01:58 | 34.91599 | -119.47683 | 29062 ft | 432 kts | 152° |
| 2026-04-22 01:58 | 34.89212 | -119.45494 | 28605 ft | 428 kts | 153° |
| 2026-04-22 01:58 | 34.86829 | -119.43347 | 28155 ft | 425 kts | 153° |
| 2026-04-22 01:58 | 34.84454 | -119.41232 | 27704 ft | 421 kts | 153° |
| 2026-04-22 01:59 | 34.82087 | -119.39137 | 27268 ft | 419 kts | 153° |
| 2026-04-22 01:59 | 34.79733 | -119.37056 | 26830 ft | 417 kts | 153° |
| 2026-04-22 01:59 | 34.78181 | -119.35682 | 26527 ft | 416 kts | 153° |
| 2026-04-22 01:59 | 34.75059 | -119.32911 | 25941 ft | 414 kts | 153° |
| 2026-04-22 02:00 | 34.72751 | -119.30860 | 25739 ft | 406 kts | 153° |
| 2026-04-22 02:00 | 34.70230 | -119.28634 | 25393 ft | 400 kts | 154° |
| 2026-04-22 02:00 | 34.67950 | -119.26641 | 25002 ft | 397 kts | 154° |
| 2026-04-22 02:00 | 34.65663 | -119.24655 | 24580 ft | 394 kts | 155° |
| 2026-04-22 02:01 | 34.63259 | -119.22572 | 24208 ft | 390 kts | 155° |
| 2026-04-22 02:01 | 34.61565 | -119.21112 | 23906 ft | 388 kts | 155° |
| 2026-04-22 02:01 | 34.59373 | -119.19230 | 23414 ft | 385 kts | 155° |
| 2026-04-22 02:01 | 34.56993 | -119.17189 | 22922 ft | 382 kts | 155° |
| 2026-04-22 02:02 | 34.54790 | -119.15289 | 22468 ft | 380 kts | 154° |
| 2026-04-22 02:02 | 34.52588 | -119.13359 | 22032 ft | 378 kts | 154° |
| 2026-04-22 02:02 | 34.50490 | -119.11503 | 21581 ft | 375 kts | 154° |
| 2026-04-22 02:02 | 34.48414 | -119.09656 | 21040 ft | 372 kts | 153° |
| 2026-04-22 02:03 | 34.46370 | -119.07832 | 20487 ft | 370 kts | 153° |
| 2026-04-22 02:03 | 34.44528 | -119.06193 | 20143 ft | 368 kts | 153° |
| 2026-04-22 02:03 | 34.42469 | -119.04370 | 19770 ft | 365 kts | 153° |
| 2026-04-22 02:03 | 34.40371 | -119.02547 | 18883 ft | 377 kts | 154° |
| 2026-04-22 02:04 | 34.36028 | -118.98826 | 17531 ft | 382 kts | 153° |
| 2026-04-22 02:04 | 34.33865 | -118.96957 | 16901 ft | 383 kts | 153° |
| 2026-04-22 02:04 | 34.31726 | -118.95057 | 16434 ft | 379 kts | 152° |
| 2026-04-22 02:05 | 34.29641 | -118.93158 | 15984 ft | 373 kts | 151° |
| 2026-04-22 02:05 | 34.27586 | -118.91270 | 15502 ft | 369 kts | 150° |
| 2026-04-22 02:05 | 34.25256 | -118.89128 | 14969 ft | 364 kts | 150° |
| 2026-04-22 02:05 | 34.23575 | -118.87582 | 14594 ft | 361 kts | 150° |
| 2026-04-22 02:06 | 34.21589 | -118.85751 | 14146 ft | 357 kts | 150° |
| 2026-04-22 02:06 | 34.19620 | -118.83937 | 13688 ft | 354 kts | 150° |
| 2026-04-22 02:06 | 34.17671 | -118.82146 | 13226 ft | 351 kts | 150° |
| 2026-04-22 02:06 | 34.15745 | -118.80337 | 12807 ft | 350 kts | 148° |
| 2026-04-22 02:07 | 34.13928 | -118.78450 | 12642 ft | 339 kts | 145° |
| 2026-04-22 02:07 | 34.12220 | -118.76562 | 12482 ft | 328 kts | 144° |
| 2026-04-22 02:07 | 34.10582 | -118.74715 | 12269 ft | 318 kts | 144° |
| 2026-04-22 02:07 | 34.08970 | -118.72912 | 11950 ft | 314 kts | 144° |
| 2026-04-22 02:08 | 34.07367 | -118.71145 | 11654 ft | 311 kts | 144° |
| 2026-04-22 02:08 | 34.05771 | -118.69401 | 11351 ft | 310 kts | 144° |
| 2026-04-22 02:08 | 34.04236 | -118.67589 | 11071 ft | 312 kts | 135° |
| 2026-04-22 02:08 | 34.03125 | -118.65317 | 10743 ft | 319 kts | 116° |
| 2026-04-22 02:09 | 34.02611 | -118.62695 | 10374 ft | 320 kts | 99° |
| 2026-04-22 02:09 | 34.02373 | -118.60053 | 9983 ft | 319 kts | 99° |
| 2026-04-22 02:09 | 34.02126 | -118.57376 | 9628 ft | 316 kts | 100° |
| 2026-04-22 02:09 | 34.01879 | -118.54766 | 9328 ft | 312 kts | 100° |
| 2026-04-22 02:10 | 34.01636 | -118.52211 | 9179 ft | 302 kts | 100° |
| 2026-04-22 02:10 | 34.01392 | -118.49659 | 8427 ft | 314 kts | 99° |
| 2026-04-22 02:10 | 34.01137 | -118.46977 | 7682 ft | 325 kts | 97° |
| 2026-04-22 02:10 | 34.01158 | -118.45029 | 7479 ft | 321 kts | 83° |
| 2026-04-22 02:11 | 34.01656 | -118.41561 | 6884 ft | 319 kts | 79° |
| 2026-04-22 02:11 | 34.02089 | -118.39010 | 6495 ft | 316 kts | 78° |
| 2026-04-22 02:11 | 34.02549 | -118.36455 | 6091 ft | 308 kts | 79° |
| 2026-04-22 02:11 | 34.02933 | -118.34034 | 5987 ft | 289 kts | 82° |
| 2026-04-22 02:12 | 34.03223 | -118.31649 | 5999 ft | 268 kts | 85° |
| 2026-04-22 02:12 | 34.03445 | -118.29547 | 6000 ft | 246 kts | 85° |
| 2026-04-22 02:12 | 34.03644 | -118.27581 | 5858 ft | 230 kts | 86° |
| 2026-04-22 02:12 | 34.03845 | -118.25604 | 5604 ft | 222 kts | 86° |
| 2026-04-22 02:13 | 34.04027 | -118.23839 | 5435 ft | 220 kts | 85° |
| 2026-04-22 02:13 | 34.04219 | -118.22026 | 5274 ft | 216 kts | 84° |
| 2026-04-22 02:13 | 34.04411 | -118.20247 | 5127 ft | 217 kts | 83° |
| 2026-04-22 02:13 | 34.04614 | -118.18399 | 4996 ft | 219 kts | 83° |
| 2026-04-22 02:14 | 34.04810 | -118.16607 | 4882 ft | 219 kts | 82° |
| 2026-04-22 02:14 | 34.04783 | -118.14803 | 4754 ft | 215 kts | 110° |
| 2026-04-22 02:14 | 34.03985 | -118.13334 | 4455 ft | 208 kts | 143° |
| 2026-04-22 02:14 | 34.02825 | -118.12296 | 4142 ft | 208 kts | 150° |
| 2026-04-22 02:15 | 34.01554 | -118.11518 | 3823 ft | 202 kts | 174° |
| 2026-04-22 02:15 | 34.00191 | -118.11721 | 3608 ft | 187 kts | 207° |
| 2026-04-22 02:15 | 33.99122 | -118.12475 | 3413 ft | 180 kts | 225° |
| 2026-04-22 02:15 | 33.98300 | -118.13581 | 3154 ft | 176 kts | 241° |
| 2026-04-22 02:16 | 33.97806 | -118.14910 | 2877 ft | 173 kts | 258° |
| 2026-04-22 02:16 | 33.97621 | -118.16337 | 2670 ft | 172 kts | 264° |
| 2026-04-22 02:16 | 33.97477 | -118.17751 | 2611 ft | 172 kts | 264° |
| 2026-04-22 02:16 | 33.97334 | -118.19191 | 2614 ft | 174 kts | 263° |
| 2026-04-22 02:17 | 33.97190 | -118.20630 | 2609 ft | 172 kts | 264° |
| 2026-04-22 02:17 | 33.97045 | -118.22073 | 2613 ft | 174 kts | 264° |
| 2026-04-22 02:17 | 33.96901 | -118.23510 | 2613 ft | 171 kts | 264° |
| 2026-04-22 02:17 | 33.96757 | -118.24939 | 2568 ft | 173 kts | 264° |
| 2026-04-22 02:18 | 33.96612 | -118.26377 | 2454 ft | 174 kts | 263° |
| 2026-04-22 02:18 | 33.96513 | -118.27356 | 2268 ft | 172 kts | 264° |
| 2026-04-22 02:18 | 33.96175 | -118.30697 | 1733 ft | 169 kts | 264° |
| 2026-04-22 02:19 | 33.96032 | -118.32111 | 1510 ft | 167 kts | 263° |
| 2026-04-22 02:19 | 33.95894 | -118.33464 | 1286 ft | 153 kts | 263° |
| 2026-04-22 02:19 | 33.95778 | -118.34653 | 1020 ft | 134 kts | 263° |
| 2026-04-22 02:19 | 33.95676 | -118.35718 | 849 ft | 126 kts | 263° |
| 2026-04-22 02:20 | 33.95568 | -118.36737 | 643 ft | 120 kts | 262° |
| 2026-04-22 02:20 | 33.95468 | -118.37708 | 505 ft | 116 kts | 261° |
| 2026-04-22 02:20 | 33.95367 | -118.38686 | 395 ft | 119 kts | 263° |
| 2026-04-22 02:20 | 33.95269 | -118.39672 | 217 ft | 116 kts | 265° |
| 2026-04-22 02:21 | 33.95170 | -118.40623 | 100 ft | 106 kts | 262° |
| 2026-04-22 02:21 | 33.95092 | -118.41362 | 93 ft | 67 kts | 263° |
| 2026-04-22 02:21 | 33.95055 | -118.41719 | 95 ft | 25 kts | 263° |
| 2026-04-22 02:21 | 33.95031 | -118.41940 | 94 ft | 24 kts | 263° |
| 2026-04-22 02:22 | 33.94986 | -118.42120 | 94 ft | 24 kts | 236° |
| 2026-04-22 02:22 | 33.94865 | -118.42268 | 97 ft | 25 kts | 208° |
| 2026-04-22 02:22 | 33.94703 | -118.42264 | 94 ft | 8 kts | 150° |
| 2026-04-22 02:22 | 33.94701 | -118.42261 | 95 ft | 0 kts | 142° |
| 2026-04-22 02:23 | 33.94698 | -118.42258 | 94 ft | 3 kts | 140° |
| 2026-04-22 02:23 | 33.94686 | -118.42206 | 94 ft | 11 kts | 83° |
| 2026-04-22 02:23 | 33.94698 | -118.42086 | 94 ft | 18 kts | 83° |
| 2026-04-22 02:24 | 33.94715 | -118.41914 | 93 ft | 22 kts | 84° |
| 2026-04-22 02:24 | 33.94731 | -118.41734 | 93 ft | 21 kts | 83° |
| 2026-04-22 02:24 | 33.94750 | -118.41552 | 94 ft | 21 kts | 81° |
| 2026-04-22 02:24 | 33.94759 | -118.41474 | 94 ft | 0 kts | 83° |
| 2026-04-22 02:25 | 33.94747 | -118.41412 | 94 ft | 22 kts | 130° |
| 2026-04-22 02:25 | 33.94627 | -118.41374 | 93 ft | 29 kts | 173° |
| 2026-04-22 02:25 | 33.94403 | -118.41341 | 93 ft | 35 kts | 173° |
| 2026-04-22 02:26 | 33.94143 | -118.41303 | 95 ft | 40 kts | 173° |
| 2026-04-22 02:26 | 33.93858 | -118.41257 | 93 ft | 27 kts | 160° |
| 2026-04-22 02:26 | 33.93846 | -118.41147 | 93 ft | 13 kts | 85° |
| 2026-04-22 02:26 | 33.93857 | -118.41021 | 93 ft | 17 kts | 82° |
| 2026-04-22 02:27 | 33.93873 | -118.40865 | 93 ft | 20 kts | 82° |
| 2026-04-22 02:27 | 33.93891 | -118.40697 | 93 ft | 22 kts | 83° |
| 2026-04-22 02:27 | 33.93910 | -118.40505 | 94 ft | 24 kts | 83° |
| 2026-04-22 02:27 | 33.93931 | -118.40307 | 94 ft | 24 kts | 84° |
| 2026-04-22 02:28 | 33.93956 | -118.40098 | 96 ft | 26 kts | 65° |
| 2026-04-22 02:28 | 33.94115 | -118.40079 | 95 ft | 9 kts | 352° |
| 2026-04-22 02:28 | 33.94117 | -118.40080 | 94 ft | 0 kts | 352° |
| 2026-04-22 02:29 | 33.94123 | -118.40081 | 94 ft | 4 kts | 352° |
| 2026-04-22 02:29 | 33.94150 | -118.40085 | 94 ft | 0 kts | 351° |
| 2026-04-22 02:29 | 33.94161 | -118.40083 | 93 ft | 3 kts | 22° |
| 2026-04-22 02:29 | 33.94167 | -118.40057 | 93 ft | 5 kts | 96° |
| 2026-04-22 02:30 | 33.94159 | -118.40023 | 93 ft | 0 kts | 91° |